Lanark, Illinois
Current Conditions -  °F | °C
As of 11:55 AM on Friday 19 Dec 2014 (Local Time) from KSFY Reporting Station
Overcast Overcast  
Wind Chill: 28°   Ceiling: 1700
Heat Index: 28°   Visibility: 10mi
Dew Point: 20°   Wind: 0mph
Humidity: 72%   Direction: NA
Pressure: 30.31"   Gusts: NA
Location:  42.1°N, 89.83°W
Report Text: KSFY 191755Z AUTO 00000KT 10SM OVC017 M02/M06 A3031 RMK AO2 T10211065 11017 21045
Loading
Personal Weather Stations






























Interactive Weather Map New forecast layout! Learn more

10-Day Weather Forecast

Advertisements
Track Severe Weather on mobile